createdAt,value
2019-04-03T00:02:04.414Z,4.10
2019-04-03T00:04:33.983Z,4.80
2019-04-03T00:07:00.336Z,4.40
2019-04-03T00:09:28.837Z,5.35
2019-04-03T00:11:57.514Z,5.35
2019-04-03T00:14:25.856Z,4.60
2019-04-03T00:16:54.464Z,4.58
2019-04-03T00:19:22.936Z,4.65
2019-04-03T00:21:51.376Z,4.70
2019-04-03T00:24:22.303Z,4.60
2019-04-03T00:26:49.174Z,4.45
2019-04-03T00:29:17.728Z,4.75
2019-04-03T00:31:46.256Z,4.75
2019-04-03T00:34:14.723Z,4.92
2019-04-03T00:36:43.555Z,5.35
2019-04-03T00:39:13.052Z,4.80
2019-04-03T00:41:41.748Z,4.83
2019-04-03T00:44:10.307Z,4.37
2019-04-03T00:46:39.012Z,5.65
2019-04-03T00:49:07.500Z,6.40
2019-04-03T00:51:36.625Z,4.97
2019-04-03T00:54:05.152Z,4.78
2019-04-03T00:56:33.670Z,4.75
2019-04-03T00:59:02.177Z,5.03
2019-04-03T01:04:29.463Z,4.78
2019-04-03T01:06:58.611Z,5.00
2019-04-03T01:09:29.142Z,5.08
2019-04-03T01:11:55.592Z,5.45
2019-04-03T01:14:24.384Z,4.85
2019-04-03T01:16:52.896Z,5.17
2019-04-03T01:19:21.409Z,4.30
2019-04-03T01:21:50.216Z,4.80
2019-04-03T01:24:18.783Z,4.90
2019-04-03T01:26:47.583Z,4.45
2019-04-03T01:29:16.032Z,5.00
2019-04-03T01:31:45.203Z,4.55
2019-04-03T01:34:13.660Z,4.60
2019-04-03T01:36:42.620Z,4.35
2019-04-03T01:39:25.900Z,4.30
2019-04-03T01:41:54.651Z,4.45
2019-04-03T01:44:24.775Z,4.85
2019-04-03T01:46:52.471Z,4.40
2019-04-03T01:49:21.063Z,4.85
2019-04-03T01:51:49.956Z,4.67
2019-04-03T01:54:18.723Z,4.53
2019-04-03T01:56:47.216Z,4.47
2019-04-03T01:59:15.705Z,5.10
2019-04-03T02:01:44.402Z,4.53
2019-04-03T02:04:13.322Z,4.15
2019-04-03T02:06:41.800Z,4.80
2019-04-03T02:09:10.195Z,4.03
2019-04-03T02:11:39.003Z,4.47
2019-04-03T02:14:07.555Z,4.10
2019-04-03T02:16:36.083Z,4.17
2019-04-03T02:19:05.031Z,4.22
2019-04-03T02:21:33.658Z,4.30
2019-04-03T02:24:03.083Z,4.58
2019-04-03T02:26:32.643Z,4.30
2019-04-03T02:29:00.191Z,4.12
2019-04-03T02:31:29.107Z,4.97
2019-04-03T02:36:50.104Z,4.75
2019-04-03T02:39:19.274Z,4.40
2019-04-03T02:41:47.800Z,4.22
2019-04-03T02:44:19.139Z,4.83
2019-04-03T02:46:45.646Z,4.90
2019-04-03T02:49:13.708Z,4.73
2019-04-03T02:51:42.524Z,4.92
2019-04-03T02:54:34.421Z,5.25
2019-04-03T02:57:00.433Z,5.37
2019-04-03T02:59:28.859Z,4.78
2019-04-03T03:01:57.611Z,4.72
2019-04-03T03:04:26.293Z,5.25
2019-04-03T03:06:55.130Z,4.80
2019-04-03T03:09:23.941Z,4.80
2019-04-03T03:11:54.906Z,4.47
2019-04-03T03:14:21.143Z,5.40
2019-04-03T03:16:50.682Z,4.58
2019-04-03T03:19:18.630Z,5.25
2019-04-03T03:21:46.959Z,4.17
2019-04-03T03:24:15.567Z,5.12
2019-04-03T03:26:44.191Z,4.65
2019-04-03T03:29:17.561Z,5.25
2019-04-03T03:32:01.548Z,5.15
2019-04-03T03:34:10.236Z,4.70
2019-04-03T03:36:40.629Z,5.12
2019-04-03T03:39:11.243Z,4.97
2019-04-03T03:41:38.315Z,5.03
2019-04-03T03:44:09.793Z,4.67
2019-04-03T03:46:36.280Z,4.42
2019-04-03T03:49:05.165Z,5.75
2019-04-03T03:51:33.803Z,5.35
2019-04-03T03:54:02.420Z,4.75
2019-04-03T03:56:32.317Z,4.72
2019-04-03T03:58:59.930Z,4.65
2019-04-03T04:01:30.266Z,4.72
2019-04-03T04:03:56.695Z,4.55
2019-04-03T04:06:27.942Z,4.83
2019-04-03T04:08:54.279Z,4.95
2019-04-03T04:11:24.640Z,5.23
2019-04-03T04:13:54.141Z,5.83
2019-04-03T04:16:22.730Z,6.10
2019-04-03T04:18:51.333Z,5.12
2019-04-03T04:21:20.000Z,5.55
2019-04-03T04:23:48.911Z,5.87
2019-04-03T04:26:17.514Z,5.45
2019-04-03T04:28:46.351Z,5.47
2019-04-03T04:31:15.350Z,5.53
2019-04-03T04:33:47.224Z,5.17
2019-04-03T04:36:13.092Z,5.60
2019-04-03T04:38:42.382Z,5.33
2019-04-03T04:41:11.363Z,5.07
2019-04-03T04:43:40.292Z,5.17
2019-04-03T04:46:09.758Z,4.67
2019-04-03T04:48:44.502Z,5.47
2019-04-03T04:51:13.062Z,5.37
2019-04-03T04:53:41.630Z,5.35
2019-04-03T04:56:10.105Z,5.87
2019-04-03T04:58:38.714Z,5.45
2019-04-03T05:01:07.226Z,4.83
2019-04-03T05:03:35.805Z,5.78
2019-04-03T05:06:04.542Z,5.58
2019-04-03T05:08:33.617Z,6.28
2019-04-03T05:11:01.865Z,5.37
2019-04-03T05:13:30.425Z,5.42
2019-04-03T05:15:59.067Z,4.83
2019-04-03T05:18:29.320Z,5.37
2019-04-03T05:20:57.026Z,5.47
2019-04-03T05:23:26.185Z,5.67
2019-04-03T05:25:55.130Z,5.95
2019-04-03T05:28:24.939Z,5.85
2019-04-03T05:30:52.897Z,5.58
2019-04-03T05:33:21.962Z,5.67
2019-04-03T05:35:50.894Z,5.62
2019-04-03T05:38:21.716Z,5.15
2019-04-03T05:40:48.498Z,5.85
2019-04-03T05:43:17.345Z,5.50
2019-04-03T05:45:46.142Z,5.60
2019-04-03T05:48:17.675Z,6.20
2019-04-03T05:50:44.021Z,5.50
2019-04-03T05:53:12.706Z,6.30
2019-04-03T05:55:41.754Z,5.70
2019-04-03T05:58:10.350Z,5.90
2019-04-03T06:00:39.442Z,6.30
2019-04-03T06:03:08.397Z,5.45
2019-04-03T06:05:37.187Z,6.22
2019-04-03T06:08:05.998Z,6.28
2019-04-03T06:10:37.141Z,5.60
2019-04-03T06:13:06.159Z,6.15
2019-04-03T06:16:04.884Z,6.40
2019-04-03T06:18:33.954Z,5.97
2019-04-03T06:21:02.850Z,5.90
2019-04-03T06:23:31.707Z,5.75
2019-04-03T06:26:02.117Z,5.35
2019-04-03T06:28:29.378Z,5.50
2019-04-03T06:30:58.233Z,6.22
2019-04-03T06:33:27.115Z,6.45
2019-04-03T06:35:56.363Z,5.80
2019-04-03T06:38:25.253Z,6.05
2019-04-03T06:40:54.157Z,5.60
2019-04-03T06:43:23.457Z,6.10
2019-04-03T06:45:52.325Z,6.40
2019-04-03T06:48:21.065Z,6.12
2019-04-03T06:50:50.258Z,5.10
2019-04-03T06:53:19.073Z,5.72
2019-04-03T06:55:47.921Z,5.55
2019-04-03T06:58:17.264Z,6.17
2019-04-03T07:00:47.317Z,6.33
2019-04-03T07:03:14.805Z,6.22
2019-04-03T07:05:43.704Z,5.80
2019-04-03T07:08:12.905Z,5.75
2019-04-03T07:10:54.231Z,6.15
2019-04-03T07:13:10.632Z,5.70
2019-04-03T07:15:39.629Z,5.90
2019-04-03T07:18:08.463Z,6.70
2019-04-03T07:20:37.540Z,6.40
2019-04-03T07:23:06.557Z,6.45
2019-04-03T07:25:36.705Z,6.60
2019-04-03T07:28:08.616Z,6.55
2019-04-03T07:30:34.473Z,6.40
2019-04-03T07:33:05.585Z,6.55
2019-04-03T07:35:32.757Z,6.42
2019-04-03T07:38:01.608Z,6.55
2019-04-03T07:40:30.509Z,6.37
2019-04-03T07:42:59.661Z,7.03
2019-04-03T07:45:28.520Z,6.92
2019-04-03T07:47:57.404Z,6.70
2019-04-03T07:50:26.180Z,6.80
2019-04-03T07:52:55.201Z,6.97
2019-04-03T07:55:24.560Z,6.55
2019-04-03T07:57:52.755Z,7.10
2019-04-03T08:00:21.561Z,6.58
2019-04-03T08:02:50.200Z,7.53
2019-04-03T08:05:18.980Z,7.95
2019-04-03T08:07:47.816Z,7.40
2019-04-03T08:10:16.593Z,7.37
2019-04-03T08:12:45.384Z,7.65
2019-04-03T08:15:14.130Z,7.57
2019-04-03T08:17:42.906Z,7.10
2019-04-03T08:20:11.821Z,7.37
2019-04-03T08:22:40.524Z,7.65
2019-04-03T08:25:12.127Z,6.83
2019-04-03T08:27:38.392Z,7.47
2019-04-03T08:30:08.502Z,7.30
2019-04-03T08:32:36.232Z,7.55
2019-04-03T08:35:18.702Z,6.35
2019-04-03T08:37:35.924Z,7.83
2019-04-03T08:40:05.144Z,6.78
2019-04-03T08:42:33.981Z,8.08
2019-04-03T08:45:05.659Z,7.08
2019-04-03T08:47:32.346Z,7.45
2019-04-03T08:50:02.391Z,7.40
2019-04-03T08:52:29.993Z,6.72
2019-04-03T08:54:59.088Z,7.75
2019-04-03T08:57:27.848Z,7.22
2019-04-03T08:59:59.604Z,7.12
2019-04-03T09:02:25.720Z,8.28
2019-04-03T09:04:54.556Z,7.95
2019-04-03T09:07:24.945Z,7.45
2019-04-03T09:09:52.388Z,7.75
2019-04-03T09:12:21.304Z,7.53
2019-04-03T09:14:50.068Z,8.00
2019-04-03T09:17:18.998Z,7.58
2019-04-03T09:19:47.720Z,8.28
2019-04-03T09:22:16.744Z,8.00
2019-04-03T09:24:45.655Z,7.53
2019-04-03T09:27:15.013Z,8.03
2019-04-03T09:29:45.173Z,7.85
2019-04-03T09:32:12.587Z,8.05
2019-04-03T09:34:41.409Z,8.20
2019-04-03T09:37:10.023Z,8.60
2019-04-03T09:39:38.613Z,8.10
2019-04-03T09:42:07.160Z,7.55
2019-04-03T09:44:35.723Z,8.08
2019-04-03T09:47:05.140Z,8.33
2019-04-03T09:49:33.647Z,8.23
2019-04-03T09:52:02.507Z,8.15
2019-04-03T09:54:31.223Z,7.80
2019-04-03T09:57:04.118Z,6.85
2019-04-03T09:59:28.744Z,8.85
2019-04-03T10:01:57.156Z,7.90
2019-04-03T10:04:26.710Z,7.22
2019-04-03T10:06:54.423Z,7.10
2019-04-03T10:10:26.360Z,7.97
2019-04-03T10:12:55.353Z,8.00
2019-04-03T10:15:23.882Z,7.85
2019-04-03T10:17:52.355Z,8.05
2019-04-03T10:20:21.027Z,6.90
2019-04-03T10:22:55.810Z,7.97
2019-04-03T10:25:21.567Z,7.92
2019-04-03T10:27:50.031Z,8.10
2019-04-03T10:30:20.347Z,8.50
2019-04-03T10:32:47.857Z,7.30
2019-04-03T10:35:16.317Z,7.83
2019-04-03T10:37:46.265Z,7.90
2019-04-03T10:40:13.411Z,8.00
2019-04-03T10:42:41.923Z,7.50
2019-04-03T10:45:10.523Z,7.97
2019-04-03T10:47:42.071Z,7.40
2019-04-03T10:50:07.710Z,8.33
2019-04-03T10:52:36.235Z,7.35
2019-04-03T10:55:05.008Z,8.10
2019-04-03T10:57:34.764Z,8.25
2019-04-03T11:00:02.437Z,8.58
2019-04-03T11:02:30.818Z,8.05
2019-04-03T11:05:00.530Z,8.20
2019-04-03T11:07:27.844Z,7.70
2019-04-03T11:09:56.427Z,8.08
2019-04-03T11:12:24.891Z,7.85
2019-04-03T11:14:53.993Z,8.33
2019-04-03T11:17:25.090Z,7.90
2019-04-03T11:19:51.676Z,8.55
2019-04-03T11:22:20.230Z,8.23
2019-04-03T11:24:48.808Z,8.08
2019-04-03T11:27:17.782Z,8.43
2019-04-03T11:29:46.279Z,8.93
2019-04-03T11:32:15.127Z,8.63
2019-04-03T11:34:43.651Z,8.38
2019-04-03T11:37:12.123Z,8.10
2019-04-03T11:39:41.035Z,8.80
2019-04-03T11:42:09.847Z,9.05
2019-04-03T11:44:38.125Z,8.28
2019-04-03T11:47:06.611Z,7.97
2019-04-03T11:49:35.678Z,8.45
2019-04-03T11:52:05.078Z,8.73
2019-04-03T11:54:33.467Z,9.30
2019-04-03T11:57:02.174Z,8.58
2019-04-03T11:59:30.550Z,8.38
2019-04-03T12:01:59.062Z,8.23
2019-04-03T12:04:28.110Z,8.70
2019-04-03T12:06:56.595Z,8.35
2019-04-03T12:09:25.279Z,8.20
2019-04-03T12:11:55.080Z,8.88
2019-04-03T12:14:22.154Z,8.97
2019-04-03T12:16:50.757Z,9.10
2019-04-03T12:19:19.338Z,9.55
2019-04-03T12:21:49.807Z,7.72
2019-04-03T12:24:17.182Z,8.40
2019-04-03T12:53:47.843Z,8.23
2019-04-03T12:56:14.255Z,8.23
2019-04-03T12:58:43.140Z,8.17
2019-04-03T13:01:12.373Z,9.35
2019-04-03T13:03:40.843Z,8.73
2019-04-03T13:06:10.756Z,9.08
2019-04-03T13:08:37.988Z,7.85
2019-04-03T13:11:06.619Z,8.98
2019-04-03T13:13:37.992Z,8.75
2019-04-03T13:16:04.813Z,7.00
2019-04-03T13:18:33.333Z,8.80
2019-04-03T13:21:02.131Z,7.78
2019-04-03T13:23:30.450Z,7.90
2019-04-03T13:25:59.469Z,7.60
2019-04-03T13:28:28.488Z,7.90
2019-04-03T13:30:57.407Z,7.40
2019-04-03T13:33:25.815Z,7.80
2019-04-03T13:35:54.371Z,7.58
2019-04-03T13:38:22.964Z,7.00
2019-04-03T13:40:51.455Z,7.87
2019-04-03T13:43:21.601Z,7.55
2019-04-03T13:45:48.977Z,6.83
2019-04-03T13:48:17.467Z,7.22
2019-04-03T13:50:46.522Z,6.17
2019-04-03T13:53:15.257Z,7.85
2019-04-03T13:55:43.828Z,7.08
2019-04-03T13:58:12.576Z,7.58
2019-04-03T14:00:41.056Z,7.17
2019-04-03T14:03:09.844Z,7.00
2019-04-03T14:05:38.380Z,6.58
2019-04-03T14:08:07.540Z,7.08
2019-04-03T14:10:36.170Z,7.10
2019-04-03T14:13:04.855Z,6.28
2019-04-03T14:15:33.343Z,6.72
2019-04-03T14:18:02.241Z,6.55
2019-04-03T14:20:30.954Z,6.12
2019-04-03T14:23:03.008Z,7.08
2019-04-03T14:25:34.014Z,6.25
2019-04-03T14:27:57.203Z,6.10
2019-04-03T14:30:25.852Z,6.40
2019-04-03T14:32:55.170Z,6.67
2019-04-03T14:35:45.478Z,6.95
2019-04-03T14:37:52.225Z,6.35
2019-04-03T14:40:21.051Z,6.43
2019-04-03T14:42:49.376Z,6.60
2019-04-03T14:45:17.901Z,6.55
2019-04-03T14:47:46.401Z,6.22
2019-04-03T14:50:15.364Z,6.78
2019-04-03T14:52:44.137Z,6.35
2019-04-03T14:55:19.950Z,6.12
2019-04-03T14:57:41.561Z,6.95
2019-04-03T15:00:24.604Z,6.65
2019-04-03T15:02:40.068Z,6.58
2019-04-03T15:05:08.535Z,6.50
2019-04-03T15:07:35.934Z,6.08
2019-04-03T15:10:06.291Z,6.33
2019-04-03T15:12:36.097Z,6.60
2019-04-03T15:15:03.670Z,5.97
2019-04-03T15:17:31.951Z,6.50
2019-04-03T15:20:00.519Z,6.62
2019-04-03T15:22:29.466Z,5.90
2019-04-03T15:24:57.638Z,6.87
2019-04-03T15:27:28.090Z,6.85
2019-04-03T15:29:54.791Z,6.47
2019-04-03T15:32:23.368Z,6.83
2019-04-03T15:34:51.955Z,6.90
2019-04-03T15:37:20.741Z,7.03
2019-04-03T15:39:55.757Z,6.30
2019-04-03T15:42:17.655Z,7.58
2019-04-03T15:44:46.640Z,6.67
2019-04-03T15:47:20.505Z,6.72
2019-04-03T15:49:47.987Z,7.47
2019-04-03T15:52:17.060Z,6.50
2019-04-03T15:54:45.296Z,6.75
2019-04-03T15:57:14.391Z,6.62
2019-04-03T15:59:42.665Z,6.92
2019-04-03T16:02:12.715Z,7.15
2019-04-03T16:04:39.775Z,6.83
2019-04-03T16:07:09.176Z,6.50
2019-04-03T16:09:37.072Z,7.53
2019-04-03T16:12:07.012Z,6.80
2019-04-03T16:14:34.112Z,7.40
2019-04-03T16:17:03.065Z,7.03
2019-04-03T16:19:31.787Z,6.12
2019-04-03T16:22:00.266Z,6.75
2019-04-03T16:24:29.157Z,6.95
2019-04-03T16:26:58.369Z,6.20
2019-04-03T16:29:27.012Z,6.90
2019-04-03T16:31:55.691Z,6.53
2019-04-03T16:34:23.588Z,6.65
2019-04-03T16:36:52.057Z,6.78
2019-04-03T16:39:21.025Z,6.35
2019-04-03T16:41:49.967Z,6.70
2019-04-03T16:44:18.406Z,5.72
2019-04-03T16:46:47.155Z,7.08
2019-04-03T16:49:15.707Z,6.22
2019-04-03T16:51:44.726Z,6.15
2019-04-03T16:54:12.884Z,6.47
2019-04-03T16:56:41.626Z,6.28
2019-04-03T16:59:10.474Z,6.60
2019-04-03T17:01:39.617Z,6.42
2019-04-03T17:04:09.265Z,6.30
2019-04-03T17:06:36.646Z,5.58
2019-04-03T17:09:07.190Z,5.90
2019-04-03T17:11:35.912Z,6.22
2019-04-03T17:14:05.177Z,5.72
2019-04-03T17:16:33.889Z,6.10
2019-04-03T17:19:03.165Z,6.05
2019-04-03T17:21:36.451Z,5.72
2019-04-03T17:24:00.369Z,6.10
2019-04-03T17:26:28.961Z,5.70
2019-04-03T17:29:04.011Z,6.70
2019-04-03T17:31:26.939Z,6.70
2019-04-03T17:33:55.276Z,6.70
2019-04-03T17:36:23.829Z,6.17
2019-04-03T17:38:52.847Z,6.62
2019-04-03T17:41:21.317Z,5.87
2019-04-03T17:43:50.295Z,6.22
2019-04-03T17:46:18.884Z,6.50
2019-04-03T17:48:47.485Z,7.08
2019-04-03T17:51:16.061Z,7.63
2019-04-03T17:53:44.897Z,6.60
2019-04-03T17:56:13.905Z,6.03
2019-04-03T17:58:42.497Z,6.12
2019-04-03T18:01:11.553Z,5.67
2019-04-03T18:03:40.172Z,5.78
2019-04-03T18:06:08.765Z,6.45
2019-04-03T18:08:37.301Z,6.97
2019-04-03T18:11:06.041Z,6.87
2019-04-03T18:13:34.634Z,6.33
2019-04-03T18:16:03.353Z,6.62
2019-04-03T18:18:33.418Z,6.33
2019-04-03T18:21:00.665Z,5.60
2019-04-03T18:23:29.480Z,5.67
2019-04-03T18:25:59.631Z,6.33
2019-04-03T18:28:26.720Z,5.85
2019-04-03T18:30:55.419Z,6.40
2019-04-03T18:33:24.059Z,6.28
2019-04-03T18:35:52.712Z,5.75
2019-04-03T18:38:21.703Z,6.78
2019-04-03T18:40:50.432Z,6.10
2019-04-03T18:43:21.606Z,6.47
2019-04-03T18:45:47.632Z,6.65
2019-04-03T18:48:16.582Z,6.05
2019-04-03T18:50:45.449Z,5.65
2019-04-03T18:53:13.943Z,5.92
2019-04-03T18:55:44.601Z,7.08
2019-04-03T18:58:11.135Z,6.23
2019-04-03T19:00:39.730Z,6.92
2019-04-03T19:03:08.225Z,6.90
2019-04-03T19:05:36.747Z,7.25
2019-04-03T19:08:12.841Z,6.35
2019-04-03T19:10:34.071Z,7.35
2019-04-03T19:13:02.906Z,6.50
2019-04-03T19:15:31.898Z,7.92
2019-04-03T19:18:02.498Z,6.90
2019-04-03T19:20:28.637Z,6.42
2019-04-03T19:23:02.815Z,5.80
2019-04-03T19:25:29.400Z,6.25
2019-04-03T19:27:55.382Z,7.37
2019-04-03T19:30:23.863Z,5.70
2019-04-03T19:32:52.898Z,5.80
2019-04-03T19:35:21.397Z,5.83
2019-04-03T19:37:49.950Z,5.72
2019-04-03T19:40:18.489Z,6.33
2019-04-03T19:42:48.856Z,6.15
2019-04-03T19:45:15.684Z,6.05
2019-04-03T19:47:45.035Z,6.42
2019-04-03T20:07:41.827Z,6.42
2019-04-03T20:10:13.383Z,6.62
2019-04-03T20:21:31.337Z,6.53
2019-04-03T20:24:00.550Z,6.60
2019-04-03T20:26:29.202Z,6.67
2019-04-03T20:28:58.069Z,7.30
2019-04-03T20:31:27.226Z,6.60
2019-04-03T20:33:55.699Z,6.42
2019-04-03T20:36:24.221Z,7.12
2019-04-03T20:38:53.352Z,7.10
2019-04-03T20:41:21.932Z,7.10
2019-04-03T20:43:50.536Z,6.95
2019-04-03T20:46:19.016Z,7.08
2019-04-03T20:58:12.089Z,6.95
2019-04-03T21:00:40.906Z,7.40
2019-04-03T21:03:12.578Z,6.28
2019-04-03T21:05:38.052Z,6.75
2019-04-03T21:08:06.820Z,6.87
2019-04-03T21:10:35.575Z,7.22
2019-04-03T21:13:04.875Z,7.35
2019-04-03T21:15:33.764Z,6.33
2019-04-03T21:18:02.272Z,7.22
2019-04-03T21:33:38.697Z,6.97
2019-04-03T21:36:07.983Z,7.35
2019-04-03T21:38:36.627Z,7.25
2019-04-03T21:41:05.288Z,7.03
2019-04-03T21:43:33.803Z,6.85
2019-04-03T21:46:02.331Z,7.78
2019-04-03T21:48:33.051Z,7.20
2019-04-03T21:51:01.651Z,7.80
2019-04-03T21:53:30.327Z,7.00
2019-04-03T21:56:05.503Z,7.25
2019-04-03T21:58:33.959Z,7.45
2019-04-03T22:01:33.090Z,7.20
2019-04-03T22:04:01.612Z,7.20
2019-04-03T22:06:30.227Z,7.47
2019-04-03T22:09:00.397Z,7.50
2019-04-03T22:11:27.827Z,7.42
2019-04-03T22:13:56.328Z,7.30
2019-04-03T22:16:24.863Z,7.50
2019-04-03T22:18:54.836Z,8.10
2019-04-03T22:21:22.091Z,7.33
2019-04-03T22:23:50.875Z,7.42
2019-04-03T22:26:19.383Z,8.07
2019-04-03T22:28:48.228Z,7.30
2019-04-03T22:31:16.759Z,7.62
2019-04-03T22:33:45.261Z,7.60
2019-04-03T22:36:14.079Z,7.92
2019-04-03T22:38:42.575Z,7.70
2019-04-03T22:41:12.804Z,7.80
2019-04-03T22:43:39.671Z,7.83
2019-04-03T22:46:08.127Z,7.72
2019-04-03T22:48:36.643Z,7.20
2019-04-03T22:51:06.982Z,7.25
2019-04-03T22:53:33.998Z,7.85
2019-04-03T22:56:02.631Z,8.43
2019-04-03T22:58:31.150Z,8.43
2019-04-03T23:01:00.262Z,7.60
2019-04-03T23:03:28.881Z,8.28
2019-04-03T23:05:57.379Z,7.65
2019-04-03T23:08:25.873Z,7.58
2019-04-03T23:10:54.399Z,7.87
2019-04-03T23:13:22.879Z,7.65
2019-04-03T23:15:51.342Z,7.50
2019-04-03T23:18:20.370Z,8.33
2019-04-03T23:20:48.839Z,8.03
2019-04-03T23:23:17.302Z,7.47
2019-04-03T23:25:45.862Z,7.70
2019-04-03T23:28:14.341Z,8.20
2019-04-03T23:30:42.838Z,8.15
2019-04-03T23:33:11.570Z,8.50
2019-04-03T23:35:40.050Z,7.97
2019-04-03T23:38:08.846Z,8.15
2019-04-03T23:40:37.606Z,7.67
2019-04-03T23:43:08.671Z,7.70
2019-04-03T23:45:34.826Z,7.05
2019-04-03T23:48:03.357Z,8.43
2019-04-03T23:50:32.302Z,7.55
2019-04-03T23:53:01.063Z,7.80
2019-04-03T23:55:29.334Z,7.80
2019-04-03T23:57:58.098Z,7.50
